Flight Track Log - Related Links

Times and Time Zones

All times are in EDT time to prevent confusion due to time zone crossing. See the DAL1952 flight status page for this flight to view local times or setup timezone preferences in your user account.

Time Position Orientation Groundspeed Altitude Reporting Facility
EDT Latitude Longitude Course Direction KTS MPH feet Rate Location/Type
Sat 07:04:52 AM 41.5283 -93.6697 136° Southeast 197 227 1,400  Level Minneapolis Center
Sat 07:06:02 AM 41.4619 -93.7269 214° Southwest 239 275 3,300 1,547 Climbing Minneapolis Center
Sat 07:07:00 AM 41.2542 -93.4166 135° Southeast  Level FlightAware Approximate
Sat 07:07:00 AM 41.4156 -93.6583 132° Southeast 295 339 4,700  Level Minneapolis Center
Sat 07:08:00 AM 41.1726 -93.3099 136° Southeast  Level FlightAware Approximate
Sat 07:08:00 AM 41.3561 -93.5794 135° Southeast 307 353 6,600  Level Minneapolis Center
Sat 07:09:00 AM 41.0904 -93.2042 136° Southeast  Level FlightAware Approximate
Sat 07:09:01 AM 41.2925 -93.4956 135° Southeast 303 349 8,900  Level Minneapolis Center
Sat 07:10:00 AM 41.0084 -93.0984 136° Southeast  Level FlightAware Approximate
Sat 07:10:03 AM 41.2247 -93.4250 142° Southeast 307 353 10,100  Level Minneapolis Center
Sat 07:11:04 AM 41.1556 -93.3339 135° Southeast 339 390 11,200 1,258 Climbing Minneapolis Center
Sat 07:12:07 AM 41.0803 -93.2350 135° Southeast 372 428 12,700 1,475 Climbing Chicago Center
Sat 07:13:06 AM 41.0031 -93.1353 136° Southeast 383 441 14,200 1,672 Climbing Chicago Center
Sat 07:14:09 AM 40.9236 -93.0319 135° Southeast 399 459 16,100 1,488 Climbing Chicago Center
Sat 07:15:07 AM 40.8450 -92.9322 136° Southeast 399 459 17,200 1,061 Climbing Chicago Center
Sat 07:17:10 AM 40.6761 -92.7147 136° Southeast 427 491 19,300 1,121 Climbing Kansas City Center
Sat 07:18:09 AM 40.5872 -92.5997 135° Southeast 442 509 20,600 1,300 Climbing Chicago Center
Sat 07:19:10 AM 40.4958 -92.4831 136° Southeast 454 522 21,900 1,033 Climbing Chicago Center
Sat 07:20:11 AM 40.4014 -92.3647 136° Southeast 460 529 22,700 843 Climbing Chicago Center
Sat 07:21:11 AM 40.3061 -92.2439 136° Southeast 470 541 23,600 807 Climbing Chicago Center
Sat 07:22:10 AM 40.2094 -92.1244 137° Southeast 473 544 24,300 850 Climbing Kansas City Center
Sat 07:23:11 AM 40.1125 -92.0039 136° Southeast 477 549 25,300 823 Climbing Kansas City Center
Sat 07:24:14 AM 40.0156 -91.8828 136° Southeast 482 555 26,000 732 Climbing Kansas City Center
Sat 07:25:14 AM 39.9183 -91.7619 136° Southeast 482 555 26,800 843 Climbing Kansas City Center
Sat 07:26:15 AM 39.8203 -91.6417 137° Southeast 484 557 27,700 908 Climbing Kansas City Center
Sat 07:27:13 AM 39.7242 -91.5214 136° Southeast 484 557 28,600 942 Climbing Kansas City Center
Sat 07:28:16 AM 39.6067 -91.3797 137° Southeast 484 557 29,600 942 Climbing Kansas City Center
Sat 07:29:14 AM 39.5175 -91.2700 136° Southeast 484 557 30,500 908 Climbing Kansas City Center
Sat 07:30:15 AM 39.4197 -91.1519 137° Southeast 484 557 31,400 823 Climbing Kansas City Center
Sat 07:31:18 AM 39.3217 -91.0342 137° Southeast 484 557 32,200 726 Climbing Kansas City Center
Sat 07:32:19 AM 39.2236 -90.9178 137° Southeast 483 556 32,900 397 Climbing Kansas City Center
Sat 07:33:19 AM 39.1269 -90.7997 137° Southeast 481 554 33,000 50 Climbing Kansas City Center
Sat 07:34:20 AM 39.0294 -90.6839 137° Southeast 481 554 33,000  Level Kansas City Center
Sat 07:35:21 AM 38.9250 -90.5594 137° Southeast 481 554 33,000  Level Kansas City Center
Sat 07:36:21 AM 38.8306 -90.4364 135° Southeast 481 554 33,000  Level Kansas City Center
Sat 07:37:22 AM 38.7383 -90.3056 132° Southeast 481 554 33,000  Level Kansas City Center
Sat 07:38:21 AM 38.6403 -90.1642 132° Southeast 481 554 33,000  Level Kansas City Center
Sat 07:39:24 AM 38.5525 -90.0358 131° Southeast 481 554 33,000  Level Kansas City Center
Sat 07:40:23 AM 38.4808 -89.9281 130° Southeast 474 545 33,000  Level Kansas City Center
Sat 07:41:23 AM 38.3933 -89.8017 131° Southeast 474 545 33,000  Level Kansas City Center
Sat 07:42:26 AM 38.3025 -89.6689 131° Southeast 485 558 33,000  Level Kansas City Center
Sat 07:43:26 AM 38.2147 -89.5422 131° Southeast 480 552 33,000  Level Kansas City Center
Sat 07:44:26 AM 38.1264 -89.4144 131° Southeast 481 554 33,000  Level Kansas City Center
Sat 07:45:27 AM 38.0189 -89.2611 132° Southeast 483 556 33,000  Level Kansas City Center
Sat 07:46:27 AM 37.9297 -89.1347 132° Southeast 483 556 33,000  Level Kansas City Center
Sat 07:47:28 AM 37.8392 -89.0083 132° Southeast 484 557 33,000  Level Kansas City Center
Sat 07:48:28 AM 37.7494 -88.8753 130° Southeast 484 557 33,000  Level Kansas City Center
Sat 07:49:29 AM 37.6592 -88.7508 132° Southeast 484 557 33,000  Level Kansas City Center
Sat 07:50:17 AM 37.5897 -88.6553 133° Southeast 479 551 33,000  Level Memphis Center
Sat 07:51:18 AM 37.5006 -88.5311 132° Southeast 479 551 33,000  Level Memphis Center
Sat 07:52:19 AM 37.4122 -88.4072 132° Southeast 478 550 33,000  Level Memphis Center
Sat 07:53:21 AM 37.3244 -88.2842 132° Southeast 476 548 33,000  Level Memphis Center
Sat 07:54:22 AM 37.2367 -88.1633 132° Southeast 472 543 33,000  Level Memphis Center
Sat 07:55:23 AM 37.1464 -88.0394 132° Southeast 471 542 33,000  Level Memphis Center
Sat 07:56:24 AM 37.0850 -87.9019 119° Southeast 460 529 33,000  Level Memphis Center
Sat 07:57:25 AM 37.0536 -87.7478 104° East 456 525 33,000  Level Memphis Center
Sat 07:58:26 AM 37.0475 -87.5914 93° East 449 517 33,000  Level Memphis Center
Sat 07:59:27 AM 37.0400 -87.4333 93° East 449 517 33,000  Level Memphis Center
Sat 08:00:29 AM 37.0086 -87.2822 105° East 462 532 33,000  Level Memphis Center
Sat 08:01:30 AM 36.9067 -87.1761 140° Southeast 479 551 33,000 -197 Level Memphis Center
Sat 08:02:31 AM 36.7881 -87.0911 150° Southeast 482 555 32,600 -738 Descending Memphis Center
Sat 08:03:32 AM 36.6539 -86.9903 149° Southeast 482 555 31,500 -787 Descending Memphis Center
Sat 08:04:33 AM 36.5392 -86.9033 149° Southeast 480 552 31,000 -246 Descending Memphis Center
Sat 08:05:34 AM 36.4428 -86.8283 148° Southeast 478 550 31,000  Level Memphis Center
Sat 08:06:36 AM 36.3172 -86.7419 151° Southeast 485 558 31,000  Level Memphis Center
Sat 08:07:37 AM 36.2006 -86.6528 148° Southeast 485 558 31,000  Level Memphis Center
Sat 08:08:38 AM 36.0858 -86.5689 149° Southeast 476 548 31,000  Level Memphis Center
Sat 08:09:39 AM 35.9708 -86.4844 149° Southeast 476 548 31,000  Level Memphis Center
Sat 08:10:40 AM 35.8556 -86.4003 149° Southeast 476 548 31,000  Level Memphis Center
Sat 08:11:41 AM 35.7392 -86.3144 149° Southeast 477 549 31,000  Level Memphis Center
Sat 08:12:42 AM 35.6042 -86.2161 149° Southeast 478 550 31,000  Level Memphis Center
Sat 08:13:44 AM 35.4964 -86.1375 149° Southeast 478 550 31,000  Level Memphis Center
Sat 08:14:45 AM 35.3828 -86.0539 149° Southeast 478 550 31,000 -246 Level Memphis Center
Sat 08:15:46 AM 35.2664 -85.9717 150° Southeast 479 551 30,500 -639 Descending Memphis Center
Sat 08:16:47 AM 35.1517 -85.8886 149° Southeast 479 551 29,700 -738 Descending Memphis Center
Sat 08:17:48 AM 35.0389 -85.8058 149° Southeast 479 551 29,000 -738 Descending Memphis Center
Sat 08:18:49 AM 34.9283 -85.7167 147° Southeast 479 551 28,200 -774 Descending Memphis Center
Sat 08:19:21 AM 34.8606 -85.6664 149° Southeast 483 556 27,800 -717 Descending Atlanta Center
Sat 08:20:21 AM 34.7489 -85.5758 146° Southeast 483 556 27,100 -1,100 Descending Atlanta Center
Sat 08:21:21 AM 34.6353 -85.4878 147° Southeast 488 562 25,600 -2,000 Descending Atlanta Center
Sat 08:22:21 AM 34.5297 -85.4053 147° Southeast 478 550 23,100 -2,500 Descending Atlanta Center
Sat 08:23:21 AM 34.4261 -85.3256 148° Southeast 466 536 20,600 -2,650 Descending Atlanta Center
Sat 08:24:21 AM 34.3228 -85.2436 147° Southeast 438 504 17,800 -2,300 Descending Atlanta Center
Sat 08:26:21 AM 34.1467 -85.0856 143° Southeast 393 452 13,700 -1,600 Descending Atlanta Center
Sat 08:27:21 AM 34.0764 -85.0094 138° Southeast 368 423 13,000 -950 Descending Atlanta Center
Sat 08:28:21 AM 34.0186 -84.9336 133° Southeast 330 380 11,800 -1,450 Descending Atlanta Center
Sat 08:29:21 AM 33.9647 -84.8628 133° Southeast 301 346 10,100 -1,350 Descending Atlanta Center
Sat 08:30:21 AM 33.9131 -84.7947 132° Southeast 287 330 9,100 -800 Descending Atlanta Center
Sat 08:31:21 AM 33.8717 -84.7294 127° Southeast 263 303 8,500 -1,000 Descending Atlanta Center
Sat 08:32:09 AM 33.8500 -84.6667 113° Southeast 235 270 7,300 -1,333 Descending Atlanta TRACON
Sat 08:33:09 AM 33.8000 -84.6333 151° Southeast 232 267 6,100 -650 Descending Atlanta TRACON
Sat 08:34:09 AM 33.7333 -84.6500 192° South 241 277 6,000 -450 Descending Atlanta TRACON
Sat 08:35:09 AM 33.7333 -84.7333 270° West 235 270 5,200 -526 Descending Atlanta TRACON
Sat 08:36:03 AM 33.7333 -84.8000 270° West 232 267 5,000 -105 Descending Atlanta TRACON
Sat 08:37:03 AM 33.7167 -84.8833 257° West 240 276 5,000  Level Atlanta TRACON
Sat 08:38:03 AM 33.6667 -84.9000 196° South 228 262 5,000  Level Atlanta TRACON
Sat 08:39:03 AM 33.6500 -84.8333 107° East 223 257 5,000  Level Atlanta TRACON
Sat 08:40:03 AM 33.6500 -84.7667 90° East 194 223 5,000 50 Level Atlanta TRACON
Sat 08:41:03 AM 33.6500 -84.7000 90° East 191 220 5,100 -421 Climbing Atlanta TRACON
Sat 08:41:57 AM 33.6500 -84.6333 90° East 189 217 4,200 -947 Descending Atlanta TRACON
Sat 08:42:57 AM 33.6500 -84.5833 90° East 185 213 3,300 -900 Descending Atlanta TRACON
Sat 08:43:57 AM 33.6500 -84.5167 90° East 178 205 2,400 -850 Descending Atlanta TRACON
Sat 08:44:57 AM 33.6500 -84.4667 90° East 137 158 1,600 -800 Descending Atlanta TRACON

Login

Don't have an account? Register now (free) for customized features, flight alerts, and more!